createdAt,value
2019-01-29T00:02:33.436Z,72.60
2019-01-29T00:05:18.771Z,72.70
2019-01-29T00:08:04.822Z,72.90
2019-01-29T00:10:47.554Z,72.90
2019-01-29T00:13:35.196Z,73.00
2019-01-29T00:19:14.274Z,73.10
2019-01-29T00:21:59.902Z,73.10
2019-01-29T00:24:42.006Z,73.20
2019-01-29T00:27:28.962Z,73.30
2019-01-29T00:30:10.729Z,73.40
2019-01-29T00:32:59.579Z,73.30
2019-01-29T00:35:43.691Z,73.40
2019-01-29T00:38:27.311Z,72.80
2019-01-29T00:41:10.448Z,72.80
2019-01-29T00:43:56.723Z,72.90
2019-01-29T00:46:46.161Z,73.00
2019-01-29T00:52:13.291Z,73.00
2019-01-29T00:55:00.888Z,72.80
2019-01-29T00:57:43.610Z,72.50
2019-01-29T01:00:28.140Z,72.60
2019-01-29T01:03:10.414Z,72.50
2019-01-29T01:05:54.221Z,72.20
2019-01-29T01:08:36.210Z,72.10
2019-01-29T01:11:21.821Z,72.40
2019-01-29T01:14:04.184Z,72.40
2019-01-29T01:16:37.330Z,72.40
2019-01-29T01:19:29.110Z,72.80
2019-01-29T01:24:56.914Z,72.30
2019-01-29T01:27:30.097Z,72.10
2019-01-29T01:30:21.060Z,72.10
2019-01-29T01:35:51.600Z,72.00
2019-01-29T01:41:20.753Z,72.60
2019-01-29T01:44:05.200Z,71.90
2019-01-29T01:46:49.139Z,72.00
2019-01-29T01:49:34.369Z,71.80
2019-01-29T01:52:17.202Z,71.80
2019-01-29T01:55:01.652Z,72.00
2019-01-29T01:57:45.895Z,72.10
2019-01-29T02:00:30.063Z,72.10
2019-01-29T02:03:12.931Z,72.30
2019-01-29T02:05:57.150Z,71.70
2019-01-29T02:08:42.621Z,71.30
2019-01-29T02:14:14.148Z,71.30
2019-01-29T02:19:42.573Z,71.60
2019-01-29T02:22:26.200Z,71.60
2019-01-29T02:25:08.312Z,71.90
2019-01-29T02:27:54.598Z,72.00
2019-01-29T02:30:42.811Z,72.20
2019-01-29T02:33:26.603Z,72.50
2019-01-29T02:36:11.454Z,72.60
2019-01-29T02:38:55.318Z,72.60
2019-01-29T02:41:38.645Z,72.80
2019-01-29T02:44:48.194Z,72.90
2019-01-29T02:47:32.033Z,72.80
2019-01-29T02:50:16.129Z,73.00
2019-01-29T02:52:59.072Z,72.90
2019-01-29T02:55:43.857Z,73.10
2019-01-29T02:58:26.602Z,73.10
2019-01-29T03:01:14.840Z,73.40
2019-01-29T03:03:57.688Z,73.50
2019-01-29T03:06:43.138Z,73.50
2019-01-29T03:09:27.152Z,73.50
2019-01-29T03:12:11.017Z,73.40
2019-01-29T03:14:54.105Z,73.30
2019-01-29T03:17:42.307Z,73.00
2019-01-29T03:20:25.383Z,72.90
2019-01-29T03:23:14.677Z,72.80
2019-01-29T03:25:57.836Z,73.10
2019-01-29T03:28:42.236Z,73.10
2019-01-29T03:31:24.848Z,73.30
2019-01-29T03:34:11.622Z,73.30
2019-01-29T03:36:55.449Z,73.40
2019-01-29T03:39:40.272Z,72.90
2019-01-29T03:42:24.039Z,73.70
2019-01-29T03:45:09.958Z,73.10
2019-01-29T03:47:52.777Z,72.90
2019-01-29T03:50:40.552Z,73.40
2019-01-29T03:53:23.672Z,73.40
2019-01-29T03:56:07.911Z,73.50
2019-01-29T03:58:51.848Z,73.40
2019-01-29T04:01:37.385Z,73.30
2019-01-29T04:04:23.821Z,73.20
2019-01-29T04:07:12.439Z,73.30
2019-01-29T04:09:57.733Z,73.20
2019-01-29T04:15:25.676Z,73.20
2019-01-29T04:18:10.693Z,73.30
2019-01-29T04:20:53.236Z,73.40
2019-01-29T04:23:47.060Z,73.70
2019-01-29T04:26:23.034Z,73.80
2019-01-29T04:29:06.320Z,74.00
2019-01-29T04:31:52.212Z,74.20
2019-01-29T04:34:25.196Z,74.30
2019-01-29T04:37:17.944Z,74.40
2019-01-29T04:40:09.864Z,74.50
2019-01-29T04:45:58.534Z,74.80
2019-01-29T04:48:43.458Z,75.00
2019-01-29T04:51:29.484Z,75.10
2019-01-29T04:54:17.054Z,75.20
2019-01-29T04:56:59.006Z,75.10
2019-01-29T04:59:44.955Z,75.30
2019-01-29T05:02:30.855Z,75.30
2019-01-29T05:07:58.316Z,75.30
2019-01-29T05:10:47.913Z,75.70
2019-01-29T05:13:33.286Z,75.50
2019-01-29T05:19:10.249Z,75.10
2019-01-29T05:24:39.814Z,74.50
2019-01-29T05:27:26.679Z,74.40
2019-01-29T05:30:10.298Z,74.30
2019-01-29T05:32:54.976Z,74.30
2019-01-29T05:35:37.851Z,74.30
2019-01-29T05:41:20.781Z,74.40
2019-01-29T05:43:52.680Z,74.50
2019-01-29T05:46:45.121Z,74.80
2019-01-29T05:52:17.511Z,75.00
2019-01-29T05:55:07.627Z,75.00
2019-01-29T05:57:42.783Z,75.00
2019-01-29T06:03:07.631Z,74.70
2019-01-29T06:05:58.239Z,74.40
2019-01-29T06:08:54.815Z,74.20
2019-01-29T06:11:27.731Z,74.10
2019-01-29T06:14:00.262Z,74.10
2019-01-29T06:16:53.514Z,74.00
2019-01-29T06:19:29.387Z,73.90
2019-01-29T06:22:29.766Z,73.80
2019-01-29T06:25:12.914Z,73.80
2019-01-29T06:27:46.477Z,73.90
2019-01-29T06:30:37.051Z,73.90
2019-01-29T06:35:57.731Z,74.10
2019-01-29T06:38:51.681Z,74.20
2019-01-29T06:41:24.763Z,74.30
2019-01-29T06:43:58.778Z,74.40
2019-01-29T06:46:31.421Z,74.70
2019-01-29T06:49:03.282Z,75.10
2019-01-29T06:51:53.986Z,74.90
2019-01-29T06:54:44.658Z,75.00
2019-01-29T06:57:17.810Z,75.10
2019-01-29T06:59:51.676Z,75.30
2019-01-29T07:02:46.281Z,75.30
2019-01-29T07:05:37.031Z,75.00
2019-01-29T07:08:20.658Z,75.40
2019-01-29T07:10:54.152Z,75.40
2019-01-29T07:13:46.247Z,75.50
2019-01-29T07:19:19.919Z,75.40
2019-01-29T07:21:53.214Z,75.20
2019-01-29T07:24:29.888Z,75.20
2019-01-29T07:27:01.763Z,75.20
2019-01-29T07:29:36.144Z,75.00
2019-01-29T07:32:08.530Z,74.20
2019-01-29T07:38:06.408Z,74.10
2019-01-29T07:40:38.057Z,73.90
2019-01-29T07:43:11.606Z,74.10
2019-01-29T07:48:51.595Z,74.20
2019-01-29T07:51:46.911Z,74.20
2019-01-29T07:54:18.699Z,73.80
2019-01-29T07:56:52.419Z,73.50
2019-01-29T07:59:32.520Z,73.20
2019-01-29T08:01:58.015Z,73.00
2019-01-29T08:04:42.370Z,72.90
2019-01-29T08:07:25.891Z,72.80
2019-01-29T08:10:14.853Z,72.90
2019-01-29T08:13:15.432Z,72.90
2019-01-29T08:16:09.460Z,72.60
2019-01-29T08:18:47.146Z,72.90
2019-01-29T08:21:21.198Z,73.00
2019-01-29T08:23:58.333Z,73.10
2019-01-29T08:26:35.674Z,73.30
2019-01-29T08:29:08.349Z,73.50
2019-01-29T08:34:28.570Z,73.70
2019-01-29T08:37:01.910Z,73.80
2019-01-29T08:39:54.052Z,73.90
2019-01-29T08:42:26.607Z,74.00
2019-01-29T08:44:59.713Z,74.30
2019-01-29T08:47:51.013Z,74.20
2019-01-29T08:50:40.457Z,74.40
2019-01-29T08:56:07.833Z,75.00
2019-01-29T08:58:40.999Z,75.10
2019-01-29T09:01:14.462Z,75.10
2019-01-29T09:04:06.632Z,75.00
2019-01-29T09:06:40.876Z,74.90
2019-01-29T09:09:31.989Z,74.80
2019-01-29T09:12:46.879Z,74.60
2019-01-29T09:15:44.424Z,74.60
2019-01-29T09:18:35.209Z,74.90
2019-01-29T09:21:14.171Z,74.80
2019-01-29T09:23:49.096Z,74.70
2019-01-29T09:26:43.115Z,74.80
2019-01-29T09:29:30.688Z,74.80
2019-01-29T09:32:03.093Z,74.80
2019-01-29T09:34:54.024Z,75.10
2019-01-29T09:37:26.615Z,75.40
2019-01-29T09:40:17.628Z,75.90
2019-01-29T09:42:49.898Z,75.80
2019-01-29T09:45:41.264Z,75.80
2019-01-29T09:48:17.233Z,75.30
2019-01-29T09:51:08.851Z,75.20
2019-01-29T09:56:29.849Z,74.00
2019-01-29T09:59:20.876Z,73.40
2019-01-29T10:02:04.533Z,72.50
2019-01-29T10:04:37.605Z,69.80
2019-01-29T10:07:10.471Z,68.40
2019-01-29T10:10:02.135Z,67.90
2019-01-29T10:12:32.938Z,67.40
2019-01-29T10:15:23.823Z,66.80
2019-01-29T10:17:55.025Z,67.40
2019-01-29T10:20:44.450Z,67.40
2019-01-29T10:23:25.699Z,68.20
2019-01-29T10:25:59.308Z,68.80
2019-01-29T10:28:49.217Z,69.00
2019-01-29T10:31:40.742Z,68.60
2019-01-29T10:34:28.298Z,66.50
2019-01-29T10:39:44.610Z,66.50
2019-01-29T10:42:35.342Z,67.40
2019-01-29T10:45:21.501Z,66.40
2019-01-29T10:47:54.992Z,66.30
2019-01-29T10:50:28.218Z,65.00
2019-01-29T10:53:19.979Z,64.50
2019-01-29T10:55:53.694Z,64.40
2019-01-29T10:58:44.160Z,64.10
2019-01-29T11:01:35.527Z,63.10
2019-01-29T11:04:08.253Z,64.20
2019-01-29T11:06:45.981Z,64.40
2019-01-29T11:09:39.889Z,64.50
2019-01-29T11:12:13.083Z,65.00
2019-01-29T11:14:45.408Z,65.60
2019-01-29T11:17:36.424Z,65.30
2019-01-29T11:20:11.697Z,63.50
2019-01-29T11:23:03.824Z,64.90
2019-01-29T11:25:35.975Z,65.70
2019-01-29T11:28:08.117Z,65.20
2019-01-29T11:30:41.095Z,64.80
2019-01-29T11:33:15.774Z,64.90
2019-01-29T11:38:38.887Z,63.70
2019-01-29T11:41:10.711Z,64.60
2019-01-29T11:44:02.553Z,64.30
2019-01-29T11:46:35.465Z,64.00
2019-01-29T11:49:07.345Z,64.00
2019-01-29T11:54:28.548Z,64.10
2019-01-29T11:57:19.898Z,63.40
2019-01-29T11:59:51.531Z,61.50
2019-01-29T12:02:28.498Z,60.50
2019-01-29T12:04:59.701Z,61.60
2019-01-29T12:13:27.871Z,61.80
2019-01-29T12:16:20.655Z,62.20
2019-01-29T12:18:53.160Z,61.90
2019-01-29T12:21:44.858Z,61.90
2019-01-29T12:24:17.915Z,62.40
2019-01-29T12:26:50.209Z,63.40
2019-01-29T12:29:26.889Z,63.30
2019-01-29T12:32:17.279Z,62.50
2019-01-29T12:34:49.636Z,62.00
2019-01-29T12:37:28.422Z,62.10
2019-01-29T12:40:02.201Z,61.80
2019-01-29T12:42:34.749Z,60.70
2019-01-29T12:45:07.385Z,61.30
2019-01-29T12:47:40.826Z,60.90
2019-01-29T12:50:15.940Z,61.10
2019-01-29T12:53:30.224Z,60.80
2019-01-29T12:56:02.284Z,60.00
2019-01-29T12:58:53.908Z,60.10
2019-01-29T13:01:26.135Z,59.20
2019-01-29T13:04:17.716Z,59.40
2019-01-29T13:07:10.361Z,59.40
2019-01-29T13:10:02.524Z,60.00
2019-01-29T13:12:19.707Z,59.00
2019-01-29T13:14:51.443Z,58.90
2019-01-29T13:17:25.440Z,58.60
2019-01-29T13:19:59.192Z,58.20
2019-01-29T13:22:32.285Z,58.50
2019-01-29T13:25:06.853Z,57.60
2019-01-29T13:27:38.501Z,57.70
2019-01-29T13:30:29.680Z,57.70
2019-01-29T13:33:23.318Z,57.50
2019-01-29T13:36:06.790Z,57.40
2019-01-29T13:38:58.730Z,58.00
2019-01-29T13:41:32.312Z,58.20
2019-01-29T13:44:07.458Z,58.10
2019-01-29T13:46:58.628Z,57.90
2019-01-29T13:49:33.906Z,57.30
2019-01-29T13:52:06.637Z,57.70
2019-01-29T13:54:40.003Z,59.30
2019-01-29T13:57:34.390Z,59.50
2019-01-29T14:00:07.173Z,60.00
2019-01-29T14:03:00.149Z,60.00
2019-01-29T14:05:50.522Z,58.90
2019-01-29T14:08:34.101Z,58.10
2019-01-29T14:11:17.928Z,58.80
2019-01-29T14:13:50.323Z,58.00
2019-01-29T14:16:22.406Z,58.70
2019-01-29T14:18:54.300Z,58.10
2019-01-29T14:21:28.002Z,57.80
2019-01-29T14:24:19.119Z,58.20
2019-01-29T14:26:56.435Z,58.50
2019-01-29T14:29:29.275Z,58.10
2019-01-29T14:32:00.874Z,57.60
2019-01-29T14:34:56.611Z,58.00
2019-01-29T14:37:29.494Z,57.40
2019-01-29T14:40:22.247Z,57.40
2019-01-29T14:45:49.099Z,57.80
2019-01-29T14:48:21.697Z,57.70
2019-01-29T14:50:57.548Z,57.50
2019-01-29T14:53:30.737Z,57.30
2019-01-29T14:56:03.795Z,56.70
2019-01-29T14:59:00.939Z,56.60
2019-01-29T15:01:34.681Z,56.20
2019-01-29T15:04:07.576Z,56.30
2019-01-29T15:06:42.556Z,56.50
2019-01-29T15:09:17.316Z,56.60
2019-01-29T15:12:07.858Z,56.40
2019-01-29T15:14:39.523Z,56.10
2019-01-29T15:17:32.916Z,56.80
2019-01-29T15:20:06.488Z,56.90
2019-01-29T15:22:38.018Z,57.60
2019-01-29T15:25:12.689Z,59.30
2019-01-29T15:27:44.727Z,60.60
2019-01-29T15:30:20.558Z,60.70
2019-01-29T15:33:11.418Z,60.50
2019-01-29T15:35:42.847Z,60.40
2019-01-29T15:38:33.069Z,60.70
2019-01-29T15:41:04.844Z,61.50
2019-01-29T15:43:37.731Z,62.50
2019-01-29T15:46:11.238Z,62.60
2019-01-29T15:48:44.075Z,63.50
2019-01-29T15:51:15.655Z,63.50
2019-01-29T15:54:07.152Z,63.80
2019-01-29T15:56:40.109Z,63.60
2019-01-29T15:59:12.198Z,63.60
2019-01-29T16:01:44.854Z,63.70
2019-01-29T16:04:19.196Z,64.40
2019-01-29T16:06:51.402Z,64.00
2019-01-29T16:09:26.603Z,64.60
2019-01-29T16:11:59.372Z,64.80
2019-01-29T16:14:31.030Z,65.00
2019-01-29T16:17:03.832Z,64.90
2019-01-29T16:19:54.394Z,64.90
2019-01-29T16:22:26.375Z,65.30
2019-01-29T16:24:59.059Z,65.90
2019-01-29T16:27:31.955Z,65.70
2019-01-29T16:30:05.290Z,65.80
2019-01-29T16:32:37.016Z,66.60
2019-01-29T16:35:29.186Z,66.70
2019-01-29T16:38:01.399Z,66.30
2019-01-29T16:40:34.221Z,66.30
2019-01-29T16:43:25.775Z,66.60
2019-01-29T16:45:58.004Z,66.80
2019-01-29T16:48:31.405Z,67.10
2019-01-29T16:51:02.947Z,67.30
2019-01-29T16:53:36.295Z,67.20
2019-01-29T16:56:08.471Z,67.30
2019-01-29T16:59:01.402Z,67.50
2019-01-29T17:01:39.639Z,67.60
2019-01-29T17:04:11.889Z,67.70
2019-01-29T17:06:48.052Z,68.00
2019-01-29T17:09:39.812Z,67.90
2019-01-29T17:12:28.926Z,68.20
2019-01-29T17:15:09.806Z,68.40
2019-01-29T17:18:03.894Z,68.70
2019-01-29T17:26:21.864Z,68.60
2019-01-29T17:28:54.612Z,68.70
2019-01-29T17:32:30.029Z,68.90
2019-01-29T17:34:53.289Z,68.50
2019-01-29T17:37:31.679Z,68.50
2019-01-29T17:40:32.256Z,68.70
2019-01-29T17:43:19.628Z,68.90
2019-01-29T17:46:34.910Z,68.90
2019-01-29T17:49:07.689Z,69.10
2019-01-29T17:52:00.354Z,69.20
2019-01-29T17:54:46.262Z,69.30
2019-01-29T18:00:33.008Z,69.20
2019-01-29T18:06:18.723Z,69.10
2019-01-29T18:11:59.696Z,69.40
2019-01-29T18:14:55.582Z,69.30
2019-01-29T18:17:43.737Z,69.40
2019-01-29T18:20:35.056Z,69.50
2019-01-29T18:23:06.718Z,69.20
2019-01-29T18:25:58.400Z,69.30
2019-01-29T18:28:49.535Z,69.50
2019-01-29T18:31:23.250Z,69.40
2019-01-29T18:33:56.464Z,69.20
2019-01-29T18:36:47.058Z,69.00
2019-01-29T18:39:20.446Z,69.20
2019-01-29T18:41:55.903Z,69.30
2019-01-29T18:44:51.012Z,69.30
2019-01-29T18:47:45.175Z,69.10
2019-01-29T18:50:19.127Z,69.30
2019-01-29T18:53:11.576Z,69.50
2019-01-29T18:58:38.659Z,69.60
2019-01-29T19:04:52.237Z,70.00
2019-01-29T19:10:21.041Z,69.90
2019-01-29T19:13:17.043Z,70.10
2019-01-29T19:15:59.896Z,69.90
2019-01-29T19:21:42.602Z,69.60
2019-01-29T19:24:35.173Z,69.20
2019-01-29T19:27:16.132Z,68.90
2019-01-29T19:29:49.957Z,68.90
2019-01-29T19:32:24.587Z,69.00
2019-01-29T19:35:17.582Z,69.00
2019-01-29T19:38:00.157Z,69.10
2019-01-29T19:40:44.092Z,69.50
2019-01-29T19:43:18.427Z,69.70
2019-01-29T19:46:08.325Z,69.80
2019-01-29T19:48:42.582Z,69.90
2019-01-29T19:54:13.360Z,70.10
2019-01-29T19:59:42.569Z,70.10
2019-01-29T20:02:29.577Z,70.20
2019-01-29T20:05:11.794Z,70.30
2019-01-29T20:07:56.997Z,70.30
2019-01-29T20:10:42.361Z,70.20
2019-01-29T20:13:17.252Z,70.00
2019-01-29T20:15:50.128Z,70.10
2019-01-29T20:21:45.913Z,70.10
2019-01-29T20:24:19.404Z,69.90
2019-01-29T20:30:12.762Z,69.80
2019-01-29T20:33:11.209Z,69.90
2019-01-29T20:35:44.304Z,70.10
2019-01-29T20:38:38.506Z,70.30
2019-01-29T20:41:21.048Z,70.50
2019-01-29T20:46:48.658Z,70.70
2019-01-29T20:49:33.093Z,70.40
2019-01-29T20:52:18.527Z,70.60
2019-01-29T20:55:03.748Z,70.60
2019-01-29T20:57:46.827Z,70.50
2019-01-29T21:00:31.039Z,70.40
2019-01-29T21:03:14.294Z,70.10
2019-01-29T21:06:00.136Z,70.30
2019-01-29T21:08:43.629Z,70.40
2019-01-29T21:11:30.213Z,70.10
2019-01-29T21:14:15.428Z,70.20
2019-01-29T21:17:01.788Z,70.10
2019-01-29T21:19:50.116Z,70.10
2019-01-29T21:22:25.017Z,70.10
2019-01-29T21:28:31.626Z,70.20
2019-01-29T21:31:14.791Z,70.20
2019-01-29T21:34:04.310Z,70.10
2019-01-29T21:39:33.877Z,70.30
2019-01-29T21:42:18.543Z,70.20
2019-01-29T21:48:00.810Z,70.10
2019-01-29T21:50:47.747Z,70.10
2019-01-29T21:53:31.752Z,70.10
2019-01-29T21:56:16.188Z,69.80
2019-01-29T21:58:59.470Z,69.80
2019-01-29T22:01:44.638Z,70.00
2019-01-29T22:04:27.879Z,70.00
2019-01-29T22:07:12.642Z,69.90
2019-01-29T22:09:55.781Z,69.90
2019-01-29T22:12:41.589Z,69.70
2019-01-29T22:15:28.559Z,69.80
2019-01-29T22:21:08.801Z,69.70
2019-01-29T22:23:53.000Z,69.60
2019-01-29T22:26:37.015Z,69.90
2019-01-29T22:29:23.351Z,70.10
2019-01-29T22:32:11.516Z,70.10
2019-01-29T22:34:58.630Z,70.20
2019-01-29T22:37:42.493Z,70.10
2019-01-29T22:40:28.410Z,70.10
2019-01-29T22:46:06.703Z,70.10
2019-01-29T22:48:52.150Z,70.00
2019-01-29T22:51:36.981Z,69.70
2019-01-29T22:54:23.454Z,69.80
2019-01-29T22:57:09.132Z,70.00
2019-01-29T23:02:48.555Z,70.40
2019-01-29T23:05:32.814Z,70.70
2019-01-29T23:08:19.964Z,70.70
2019-01-29T23:10:51.874Z,70.80
2019-01-29T23:13:44.348Z,71.10
2019-01-29T23:22:07.564Z,71.10
2019-01-29T23:27:55.835Z,70.90
2019-01-29T23:30:47.543Z,71.30
2019-01-29T23:33:29.609Z,71.60
2019-01-29T23:36:18.526Z,71.70
2019-01-29T23:39:00.750Z,71.80
2019-01-29T23:41:46.534Z,71.90
2019-01-29T23:44:29.321Z,72.40
2019-01-29T23:47:18.300Z,72.10
2019-01-29T23:50:03.048Z,72.10
2019-01-29T23:52:47.863Z,72.10
2019-01-29T23:55:36.134Z,72.00
2019-01-29T23:58:22.701Z,71.70
